sensor_id;sensor_type;location;lat;lon;timestamp;P1;durP1;ratioP1;P2;durP2;ratioP2
17844;SDS011;9047;53.486;10.218;2022-12-18T00:00:08;36.25;;;16.13;;
17844;SDS011;9047;53.486;10.218;2022-12-18T00:02:36;34.28;;;16.83;;
17844;SDS011;9047;53.486;10.218;2022-12-18T00:05:05;35.13;;;17.02;;
17844;SDS011;9047;53.486;10.218;2022-12-18T00:07:35;33.17;;;16.60;;
17844;SDS011;9047;53.486;10.218;2022-12-18T00:10:03;36.05;;;17.38;;
17844;SDS011;9047;53.486;10.218;2022-12-18T00:12:31;34.50;;;17.02;;
17844;SDS011;9047;53.486;10.218;2022-12-18T00:15:03;37.88;;;17.05;;
17844;SDS011;9047;53.486;10.218;2022-12-18T00:17:30;37.70;;;16.20;;
17844;SDS011;9047;53.486;10.218;2022-12-18T00:19:57;38.45;;;21.08;;
17844;SDS011;9047;53.486;10.218;2022-12-18T00:22:24;36.30;;;17.48;;
17844;SDS011;9047;53.486;10.218;2022-12-18T00:24:51;33.60;;;16.65;;
17844;SDS011;9047;53.486;10.218;2022-12-18T00:27:18;33.15;;;15.65;;
17844;SDS011;9047;53.486;10.218;2022-12-18T00:29:45;36.17;;;16.35;;
17844;SDS011;9047;53.486;10.218;2022-12-18T00:32:13;35.65;;;15.45;;
17844;SDS011;9047;53.486;10.218;2022-12-18T00:34:40;32.70;;;15.43;;
17844;SDS011;9047;53.486;10.218;2022-12-18T00:37:07;34.38;;;15.77;;
17844;SDS011;9047;53.486;10.218;2022-12-18T00:39:35;33.78;;;14.98;;
17844;SDS011;9047;53.486;10.218;2022-12-18T00:42:02;31.75;;;14.88;;
17844;SDS011;9047;53.486;10.218;2022-12-18T00:44:46;31.92;;;14.55;;
17844;SDS011;9047;53.486;10.218;2022-12-18T00:47:16;31.52;;;14.73;;
17844;SDS011;9047;53.486;10.218;2022-12-18T00:49:43;30.13;;;14.00;;
17844;SDS011;9047;53.486;10.218;2022-12-18T00:52:10;34.63;;;15.27;;
17844;SDS011;9047;53.486;10.218;2022-12-18T00:54:38;31.88;;;14.65;;
17844;SDS011;9047;53.486;10.218;2022-12-18T00:57:07;32.58;;;13.75;;
17844;SDS011;9047;53.486;10.218;2022-12-18T00:59:35;27.92;;;13.70;;
17844;SDS011;9047;53.486;10.218;2022-12-18T01:02:04;28.55;;;14.20;;
17844;SDS011;9047;53.486;10.218;2022-12-18T01:04:35;32.28;;;14.60;;
17844;SDS011;9047;53.486;10.218;2022-12-18T01:07:02;29.45;;;13.80;;
17844;SDS011;9047;53.486;10.218;2022-12-18T01:09:32;30.05;;;13.80;;
17844;SDS011;9047;53.486;10.218;2022-12-18T01:11:59;24.75;;;13.50;;
17844;SDS011;9047;53.486;10.218;2022-12-18T01:14:30;27.33;;;13.48;;
17844;SDS011;9047;53.486;10.218;2022-12-18T01:16:59;30.33;;;13.82;;
17844;SDS011;9047;53.486;10.218;2022-12-18T01:19:27;28.70;;;13.13;;
17844;SDS011;9047;53.486;10.218;2022-12-18T01:21:57;30.88;;;13.98;;
17844;SDS011;9047;53.486;10.218;2022-12-18T01:24:26;29.55;;;13.48;;
17844;SDS011;9047;53.486;10.218;2022-12-18T01:26:53;28.60;;;13.43;;
17844;SDS011;9047;53.486;10.218;2022-12-18T01:29:22;33.70;;;14.25;;
17844;SDS011;9047;53.486;10.218;2022-12-18T01:31:49;29.95;;;13.77;;
17844;SDS011;9047;53.486;10.218;2022-12-18T01:34:16;27.13;;;13.80;;
17844;SDS011;9047;53.486;10.218;2022-12-18T01:36:43;27.15;;;13.93;;
17844;SDS011;9047;53.486;10.218;2022-12-18T01:39:12;28.27;;;13.65;;
17844;SDS011;9047;53.486;10.218;2022-12-18T01:41:41;25.33;;;13.10;;
17844;SDS011;9047;53.486;10.218;2022-12-18T01:47:24;28.15;;;13.15;;
17844;SDS011;9047;53.486;10.218;2022-12-18T01:49:55;28.88;;;13.90;;
17844;SDS011;9047;53.486;10.218;2022-12-18T01:52:25;30.80;;;13.60;;
17844;SDS011;9047;53.486;10.218;2022-12-18T01:54:56;25.48;;;13.32;;
17844;SDS011;9047;53.486;10.218;2022-12-18T01:57:25;30.30;;;13.27;;
17844;SDS011;9047;53.486;10.218;2022-12-18T01:59:57;26.85;;;12.52;;
17844;SDS011;9047;53.486;10.218;2022-12-18T02:02:28;29.67;;;12.82;;
17844;SDS011;9047;53.486;10.218;2022-12-18T02:04:56;25.55;;;12.88;;
17844;SDS011;9047;53.486;10.218;2022-12-18T02:07:24;22.70;;;12.70;;
17844;SDS011;9047;53.486;10.218;2022-12-18T02:10:02;26.65;;;12.10;;
17844;SDS011;9047;53.486;10.218;2022-12-18T02:12:35;25.98;;;12.82;;
17844;SDS011;9047;53.486;10.218;2022-12-18T02:15:13;25.63;;;12.65;;
17844;SDS011;9047;53.486;10.218;2022-12-18T02:17:46;26.83;;;13.07;;
17844;SDS011;9047;53.486;10.218;2022-12-18T02:20:20;23.65;;;12.20;;
17844;SDS011;9047;53.486;10.218;2022-12-18T02:22:55;24.08;;;12.48;;
17844;SDS011;9047;53.486;10.218;2022-12-18T02:28:25;27.90;;;12.38;;
17844;SDS011;9047;53.486;10.218;2022-12-18T02:30:56;24.52;;;12.80;;
17844;SDS011;9047;53.486;10.218;2022-12-18T02:33:29;25.83;;;12.65;;
17844;SDS011;9047;53.486;10.218;2022-12-18T02:35:58;23.45;;;12.35;;
17844;SDS011;9047;53.486;10.218;2022-12-18T02:38:26;23.73;;;12.32;;
17844;SDS011;9047;53.486;10.218;2022-12-18T02:40:59;26.10;;;12.27;;
17844;SDS011;9047;53.486;10.218;2022-12-18T02:43:29;27.30;;;11.88;;
17844;SDS011;9047;53.486;10.218;2022-12-18T02:46:00;25.73;;;12.27;;
17844;SDS011;9047;53.486;10.218;2022-12-18T02:48:47;24.75;;;11.98;;
17844;SDS011;9047;53.486;10.218;2022-12-18T02:51:17;28.25;;;12.45;;
17844;SDS011;9047;53.486;10.218;2022-12-18T02:53:51;25.58;;;13.05;;
17844;SDS011;9047;53.486;10.218;2022-12-18T02:56:28;22.65;;;12.13;;
17844;SDS011;9047;53.486;10.218;2022-12-18T02:59:00;27.15;;;12.23;;
17844;SDS011;9047;53.486;10.218;2022-12-18T03:01:34;28.90;;;13.13;;
17844;SDS011;9047;53.486;10.218;2022-12-18T03:04:09;28.85;;;13.13;;
17844;SDS011;9047;53.486;10.218;2022-12-18T03:06:41;26.50;;;13.32;;
17844;SDS011;9047;53.486;10.218;2022-12-18T03:09:14;29.33;;;12.77;;
17844;SDS011;9047;53.486;10.218;2022-12-18T03:11:49;28.00;;;12.82;;
17844;SDS011;9047;53.486;10.218;2022-12-18T03:14:38;27.95;;;13.13;;
17844;SDS011;9047;53.486;10.218;2022-12-18T03:17:09;29.80;;;12.65;;
17844;SDS011;9047;53.486;10.218;2022-12-18T03:19:39;24.25;;;12.18;;
17844;SDS011;9047;53.486;10.218;2022-12-18T03:22:10;28.15;;;13.05;;
17844;SDS011;9047;53.486;10.218;2022-12-18T03:24:47;28.42;;;13.00;;
17844;SDS011;9047;53.486;10.218;2022-12-18T03:27:18;24.00;;;12.35;;
17844;SDS011;9047;53.486;10.218;2022-12-18T03:29:49;25.00;;;12.15;;
17844;SDS011;9047;53.486;10.218;2022-12-18T03:32:26;24.92;;;12.25;;
17844;SDS011;9047;53.486;10.218;2022-12-18T03:34:58;26.83;;;12.98;;
17844;SDS011;9047;53.486;10.218;2022-12-18T03:37:29;24.73;;;11.75;;
17844;SDS011;9047;53.486;10.218;2022-12-18T03:39:56;23.17;;;12.02;;
17844;SDS011;9047;53.486;10.218;2022-12-18T03:42:25;28.80;;;12.50;;
17844;SDS011;9047;53.486;10.218;2022-12-18T03:45:01;25.80;;;12.70;;
17844;SDS011;9047;53.486;10.218;2022-12-18T03:47:35;24.88;;;11.73;;
17844;SDS011;9047;53.486;10.218;2022-12-18T03:50:10;24.85;;;12.38;;
17844;SDS011;9047;53.486;10.218;2022-12-18T03:52:41;26.80;;;12.07;;
17844;SDS011;9047;53.486;10.218;2022-12-18T03:55:12;27.73;;;13.80;;
17844;SDS011;9047;53.486;10.218;2022-12-18T03:57:47;25.35;;;12.50;;
17844;SDS011;9047;53.486;10.218;2022-12-18T04:00:17;28.00;;;12.85;;
17844;SDS011;9047;53.486;10.218;2022-12-18T04:02:47;25.92;;;12.77;;
17844;SDS011;9047;53.486;10.218;2022-12-18T04:05:17;29.95;;;13.77;;
17844;SDS011;9047;53.486;10.218;2022-12-18T04:07:45;27.95;;;13.00;;
17844;SDS011;9047;53.486;10.218;2022-12-18T04:10:18;34.20;;;14.45;;
17844;SDS011;9047;53.486;10.218;2022-12-18T04:12:50;30.13;;;14.38;;
17844;SDS011;9047;53.486;10.218;2022-12-18T04:15:21;32.80;;;14.10;;
17844;SDS011;9047;53.486;10.218;2022-12-18T04:17:52;31.02;;;14.85;;
17844;SDS011;9047;53.486;10.218;2022-12-18T04:20:20;30.00;;;14.18;;
17844;SDS011;9047;53.486;10.218;2022-12-18T04:22:47;27.85;;;13.50;;
17844;SDS011;9047;53.486;10.218;2022-12-18T04:25:14;32.20;;;14.32;;
17844;SDS011;9047;53.486;10.218;2022-12-18T04:27:43;35.20;;;15.25;;
17844;SDS011;9047;53.486;10.218;2022-12-18T04:30:21;33.95;;;14.30;;
17844;SDS011;9047;53.486;10.218;2022-12-18T04:32:48;30.70;;;14.35;;
17844;SDS011;9047;53.486;10.218;2022-12-18T04:35:18;32.95;;;15.15;;
17844;SDS011;9047;53.486;10.218;2022-12-18T04:37:47;29.77;;;14.77;;
17844;SDS011;9047;53.486;10.218;2022-12-18T04:40:17;30.77;;;15.45;;
17844;SDS011;9047;53.486;10.218;2022-12-18T04:42:44;31.95;;;15.20;;
17844;SDS011;9047;53.486;10.218;2022-12-18T04:45:13;32.08;;;15.25;;
17844;SDS011;9047;53.486;10.218;2022-12-18T04:47:40;34.00;;;15.10;;
17844;SDS011;9047;53.486;10.218;2022-12-18T04:50:07;34.00;;;15.23;;
17844;SDS011;9047;53.486;10.218;2022-12-18T04:52:35;30.15;;;15.20;;
17844;SDS011;9047;53.486;10.218;2022-12-18T04:55:05;29.52;;;14.02;;
17844;SDS011;9047;53.486;10.218;2022-12-18T04:57:32;31.52;;;14.98;;
17844;SDS011;9047;53.486;10.218;2022-12-18T05:00:00;28.65;;;14.98;;
17844;SDS011;9047;53.486;10.218;2022-12-18T05:02:28;31.73;;;14.88;;
17844;SDS011;9047;53.486;10.218;2022-12-18T05:04:55;35.55;;;14.68;;
17844;SDS011;9047;53.486;10.218;2022-12-18T05:07:23;30.02;;;14.98;;
17844;SDS011;9047;53.486;10.218;2022-12-18T05:09:51;32.38;;;15.25;;
17844;SDS011;9047;53.486;10.218;2022-12-18T05:12:22;32.80;;;15.45;;
17844;SDS011;9047;53.486;10.218;2022-12-18T05:14:50;33.15;;;14.85;;
17844;SDS011;9047;53.486;10.218;2022-12-18T05:17:18;28.73;;;14.20;;
17844;SDS011;9047;53.486;10.218;2022-12-18T05:19:47;33.70;;;15.57;;
17844;SDS011;9047;53.486;10.218;2022-12-18T05:22:14;35.63;;;15.80;;
17844;SDS011;9047;53.486;10.218;2022-12-18T05:24:42;31.67;;;15.43;;
17844;SDS011;9047;53.486;10.218;2022-12-18T05:27:09;33.35;;;16.23;;
17844;SDS011;9047;53.486;10.218;2022-12-18T05:29:37;33.25;;;15.20;;
17844;SDS011;9047;53.486;10.218;2022-12-18T05:32:06;31.75;;;15.35;;
17844;SDS011;9047;53.486;10.218;2022-12-18T05:34:38;37.42;;;16.02;;
17844;SDS011;9047;53.486;10.218;2022-12-18T05:37:06;31.23;;;15.68;;
17844;SDS011;9047;53.486;10.218;2022-12-18T05:39:34;31.00;;;15.40;;
17844;SDS011;9047;53.486;10.218;2022-12-18T05:42:01;34.78;;;15.50;;
17844;SDS011;9047;53.486;10.218;2022-12-18T05:44:28;35.38;;;15.85;;
17844;SDS011;9047;53.486;10.218;2022-12-18T05:46:55;33.95;;;16.15;;
17844;SDS011;9047;53.486;10.218;2022-12-18T05:49:22;35.60;;;15.85;;
17844;SDS011;9047;53.486;10.218;2022-12-18T05:51:49;35.83;;;15.68;;
17844;SDS011;9047;53.486;10.218;2022-12-18T05:54:18;34.70;;;16.63;;
17844;SDS011;9047;53.486;10.218;2022-12-18T05:56:45;35.47;;;16.45;;
17844;SDS011;9047;53.486;10.218;2022-12-18T05:59:14;30.63;;;15.43;;
17844;SDS011;9047;53.486;10.218;2022-12-18T06:01:41;34.10;;;16.65;;
17844;SDS011;9047;53.486;10.218;2022-12-18T06:04:09;35.25;;;15.88;;
17844;SDS011;9047;53.486;10.218;2022-12-18T06:06:37;39.38;;;16.20;;
17844;SDS011;9047;53.486;10.218;2022-12-18T06:09:05;39.08;;;16.95;;
17844;SDS011;9047;53.486;10.218;2022-12-18T06:11:36;36.85;;;16.83;;
17844;SDS011;9047;53.486;10.218;2022-12-18T06:14:04;35.88;;;16.45;;
17844;SDS011;9047;53.486;10.218;2022-12-18T06:16:33;32.88;;;15.88;;
17844;SDS011;9047;53.486;10.218;2022-12-18T06:19:02;40.95;;;16.33;;
17844;SDS011;9047;53.486;10.218;2022-12-18T06:21:31;36.65;;;16.27;;
17844;SDS011;9047;53.486;10.218;2022-12-18T06:24:01;35.67;;;15.90;;
17844;SDS011;9047;53.486;10.218;2022-12-18T06:26:28;36.97;;;16.70;;
17844;SDS011;9047;53.486;10.218;2022-12-18T06:28:56;40.13;;;17.17;;
17844;SDS011;9047;53.486;10.218;2022-12-18T06:31:23;35.83;;;16.67;;
17844;SDS011;9047;53.486;10.218;2022-12-18T06:33:51;34.20;;;16.13;;
17844;SDS011;9047;53.486;10.218;2022-12-18T06:36:18;40.45;;;17.67;;
17844;SDS011;9047;53.486;10.218;2022-12-18T06:38:46;34.15;;;16.35;;
17844;SDS011;9047;53.486;10.218;2022-12-18T06:41:14;36.05;;;16.95;;
17844;SDS011;9047;53.486;10.218;2022-12-18T06:43:43;36.47;;;16.50;;
17844;SDS011;9047;53.486;10.218;2022-12-18T06:46:13;39.13;;;17.00;;
17844;SDS011;9047;53.486;10.218;2022-12-18T06:48:40;38.95;;;17.30;;
17844;SDS011;9047;53.486;10.218;2022-12-18T06:51:08;36.00;;;16.33;;
17844;SDS011;9047;53.486;10.218;2022-12-18T06:53:35;37.03;;;16.90;;
17844;SDS011;9047;53.486;10.218;2022-12-18T06:56:04;40.72;;;17.73;;
17844;SDS011;9047;53.486;10.218;2022-12-18T06:58:33;36.92;;;16.92;;
17844;SDS011;9047;53.486;10.218;2022-12-18T07:01:00;41.50;;;17.83;;
17844;SDS011;9047;53.486;10.218;2022-12-18T07:03:30;40.33;;;17.35;;
17844;SDS011;9047;53.486;10.218;2022-12-18T07:06:00;37.83;;;16.65;;
17844;SDS011;9047;53.486;10.218;2022-12-18T07:08:28;40.63;;;17.42;;
17844;SDS011;9047;53.486;10.218;2022-12-18T07:10:57;36.67;;;16.52;;
17844;SDS011;9047;53.486;10.218;2022-12-18T07:13:24;41.50;;;16.85;;
17844;SDS011;9047;53.486;10.218;2022-12-18T07:15:54;41.63;;;17.60;;
17844;SDS011;9047;53.486;10.218;2022-12-18T07:18:33;38.22;;;16.70;;
17844;SDS011;9047;53.486;10.218;2022-12-18T07:21:03;38.10;;;16.65;;
17844;SDS011;9047;53.486;10.218;2022-12-18T07:23:32;37.25;;;17.05;;
17844;SDS011;9047;53.486;10.218;2022-12-18T07:26:01;39.70;;;16.25;;
17844;SDS011;9047;53.486;10.218;2022-12-18T07:28:29;43.22;;;17.95;;
17844;SDS011;9047;53.486;10.218;2022-12-18T07:30:56;38.53;;;16.55;;
17844;SDS011;9047;53.486;10.218;2022-12-18T07:33:24;41.10;;;17.50;;
17844;SDS011;9047;53.486;10.218;2022-12-18T07:36:00;37.60;;;16.30;;
17844;SDS011;9047;53.486;10.218;2022-12-18T07:38:28;40.25;;;16.90;;
17844;SDS011;9047;53.486;10.218;2022-12-18T07:40:59;39.17;;;17.70;;
17844;SDS011;9047;53.486;10.218;2022-12-18T07:43:27;41.45;;;16.90;;
17844;SDS011;9047;53.486;10.218;2022-12-18T07:45:57;40.60;;;17.08;;
17844;SDS011;9047;53.486;10.218;2022-12-18T07:48:26;40.95;;;16.77;;
17844;SDS011;9047;53.486;10.218;2022-12-18T07:51:02;41.15;;;18.05;;
17844;SDS011;9047;53.486;10.218;2022-12-18T07:53:31;39.05;;;16.88;;
17844;SDS011;9047;53.486;10.218;2022-12-18T07:55:59;39.67;;;16.75;;
17844;SDS011;9047;53.486;10.218;2022-12-18T07:58:29;37.55;;;17.50;;
17844;SDS011;9047;53.486;10.218;2022-12-18T08:01:01;35.42;;;16.13;;
17844;SDS011;9047;53.486;10.218;2022-12-18T08:03:32;40.10;;;17.45;;
17844;SDS011;9047;53.486;10.218;2022-12-18T08:08:52;39.38;;;16.77;;
17844;SDS011;9047;53.486;10.218;2022-12-18T08:11:32;42.28;;;18.08;;
17844;SDS011;9047;53.486;10.218;2022-12-18T08:14:01;41.25;;;16.90;;
17844;SDS011;9047;53.486;10.218;2022-12-18T08:16:29;41.05;;;17.83;;
17844;SDS011;9047;53.486;10.218;2022-12-18T08:18:56;39.83;;;17.33;;
17844;SDS011;9047;53.486;10.218;2022-12-18T08:21:27;41.30;;;18.08;;
17844;SDS011;9047;53.486;10.218;2022-12-18T08:23:58;42.58;;;16.67;;
17844;SDS011;9047;53.486;10.218;2022-12-18T08:26:29;43.30;;;18.00;;
17844;SDS011;9047;53.486;10.218;2022-12-18T08:29:00;40.55;;;17.02;;
17844;SDS011;9047;53.486;10.218;2022-12-18T08:31:28;43.15;;;18.25;;
17844;SDS011;9047;53.486;10.218;2022-12-18T08:34:09;38.53;;;16.58;;
17844;SDS011;9047;53.486;10.218;2022-12-18T08:36:41;40.22;;;16.95;;
17844;SDS011;9047;53.486;10.218;2022-12-18T08:39:08;41.80;;;16.77;;
17844;SDS011;9047;53.486;10.218;2022-12-18T08:41:38;39.05;;;16.58;;
17844;SDS011;9047;53.486;10.218;2022-12-18T08:44:06;37.00;;;15.90;;
17844;SDS011;9047;53.486;10.218;2022-12-18T08:46:51;38.80;;;16.55;;
17844;SDS011;9047;53.486;10.218;2022-12-18T08:49:21;39.10;;;16.70;;
17844;SDS011;9047;53.486;10.218;2022-12-18T08:51:55;33.13;;;15.13;;
17844;SDS011;9047;53.486;10.218;2022-12-18T08:54:23;35.63;;;15.70;;
17844;SDS011;9047;53.486;10.218;2022-12-18T08:59:28;36.83;;;15.80;;
17844;SDS011;9047;53.486;10.218;2022-12-18T09:02:10;39.65;;;15.63;;
17844;SDS011;9047;53.486;10.218;2022-12-18T09:04:38;35.50;;;15.30;;
17844;SDS011;9047;53.486;10.218;2022-12-18T09:07:09;35.83;;;15.10;;
17844;SDS011;9047;53.486;10.218;2022-12-18T09:10:00;34.00;;;15.32;;
17844;SDS011;9047;53.486;10.218;2022-12-18T09:13:03;35.08;;;15.45;;
17844;SDS011;9047;53.486;10.218;2022-12-18T09:15:39;35.85;;;15.48;;
17844;SDS011;9047;53.486;10.218;2022-12-18T09:18:10;31.95;;;15.50;;
17844;SDS011;9047;53.486;10.218;2022-12-18T09:20:38;36.42;;;15.88;;
17844;SDS011;9047;53.486;10.218;2022-12-18T09:23:21;34.95;;;16.38;;
17844;SDS011;9047;53.486;10.218;2022-12-18T09:26:02;36.05;;;15.43;;
17844;SDS011;9047;53.486;10.218;2022-12-18T09:28:31;33.67;;;15.88;;
17844;SDS011;9047;53.486;10.218;2022-12-18T09:31:03;33.15;;;15.63;;
17844;SDS011;9047;53.486;10.218;2022-12-18T09:33:32;32.35;;;15.63;;
17844;SDS011;9047;53.486;10.218;2022-12-18T09:36:01;37.17;;;16.65;;
17844;SDS011;9047;53.486;10.218;2022-12-18T09:38:33;32.00;;;15.07;;
17844;SDS011;9047;53.486;10.218;2022-12-18T09:41:04;33.65;;;14.45;;
17844;SDS011;9047;53.486;10.218;2022-12-18T09:43:43;36.30;;;14.63;;
17844;SDS011;9047;53.486;10.218;2022-12-18T09:46:15;34.42;;;15.35;;
17844;SDS011;9047;53.486;10.218;2022-12-18T09:48:47;30.50;;;14.30;;
17844;SDS011;9047;53.486;10.218;2022-12-18T09:51:22;33.67;;;15.15;;
17844;SDS011;9047;53.486;10.218;2022-12-18T09:53:57;36.38;;;15.35;;
17844;SDS011;9047;53.486;10.218;2022-12-18T09:56:31;32.28;;;14.63;;
17844;SDS011;9047;53.486;10.218;2022-12-18T09:59:04;32.17;;;15.25;;
17844;SDS011;9047;53.486;10.218;2022-12-18T10:01:32;34.47;;;14.57;;
17844;SDS011;9047;53.486;10.218;2022-12-18T10:04:00;34.38;;;15.18;;
17844;SDS011;9047;53.486;10.218;2022-12-18T10:06:28;33.60;;;14.60;;
17844;SDS011;9047;53.486;10.218;2022-12-18T10:09:05;31.02;;;14.18;;
17844;SDS011;9047;53.486;10.218;2022-12-18T10:11:43;31.10;;;14.48;;
17844;SDS011;9047;53.486;10.218;2022-12-18T10:14:18;30.70;;;14.77;;
17844;SDS011;9047;53.486;10.218;2022-12-18T10:16:52;32.38;;;15.35;;
17844;SDS011;9047;53.486;10.218;2022-12-18T10:19:31;34.67;;;14.95;;
17844;SDS011;9047;53.486;10.218;2022-12-18T10:22:07;33.78;;;14.82;;
17844;SDS011;9047;53.486;10.218;2022-12-18T10:24:44;28.17;;;13.57;;
17844;SDS011;9047;53.486;10.218;2022-12-18T10:27:21;29.88;;;14.27;;
17844;SDS011;9047;53.486;10.218;2022-12-18T10:29:51;30.88;;;14.70;;
17844;SDS011;9047;53.486;10.218;2022-12-18T10:32:19;34.50;;;13.60;;
17844;SDS011;9047;53.486;10.218;2022-12-18T10:34:47;34.67;;;15.52;;
17844;SDS011;9047;53.486;10.218;2022-12-18T10:37:15;36.78;;;16.55;;
17844;SDS011;9047;53.486;10.218;2022-12-18T10:39:46;32.55;;;15.68;;
17844;SDS011;9047;53.486;10.218;2022-12-18T10:42:32;30.80;;;15.07;;
17844;SDS011;9047;53.486;10.218;2022-12-18T10:45:00;31.83;;;15.00;;
17844;SDS011;9047;53.486;10.218;2022-12-18T10:47:28;33.05;;;14.57;;
17844;SDS011;9047;53.486;10.218;2022-12-18T10:49:55;34.63;;;14.77;;
17844;SDS011;9047;53.486;10.218;2022-12-18T10:52:24;32.75;;;15.55;;
17844;SDS011;9047;53.486;10.218;2022-12-18T10:54:57;31.00;;;14.32;;
17844;SDS011;9047;53.486;10.218;2022-12-18T10:57:31;35.40;;;15.25;;
17844;SDS011;9047;53.486;10.218;2022-12-18T11:00:20;31.10;;;14.38;;
17844;SDS011;9047;53.486;10.218;2022-12-18T11:02:52;34.22;;;15.05;;
17844;SDS011;9047;53.486;10.218;2022-12-18T11:05:26;33.00;;;16.08;;
17844;SDS011;9047;53.486;10.218;2022-12-18T11:07:56;33.78;;;15.75;;
17844;SDS011;9047;53.486;10.218;2022-12-18T11:10:31;30.65;;;15.00;;
17844;SDS011;9047;53.486;10.218;2022-12-18T11:13:15;29.20;;;14.90;;
17844;SDS011;9047;53.486;10.218;2022-12-18T11:15:45;33.03;;;15.05;;
17844;SDS011;9047;53.486;10.218;2022-12-18T11:18:16;31.98;;;14.57;;
17844;SDS011;9047;53.486;10.218;2022-12-18T11:20:52;32.00;;;15.18;;
17844;SDS011;9047;53.486;10.218;2022-12-18T11:23:25;31.17;;;15.02;;
17844;SDS011;9047;53.486;10.218;2022-12-18T11:25:57;35.05;;;15.48;;
17844;SDS011;9047;53.486;10.218;2022-12-18T11:28:34;33.22;;;15.43;;
17844;SDS011;9047;53.486;10.218;2022-12-18T11:31:09;29.88;;;14.70;;
17844;SDS011;9047;53.486;10.218;2022-12-18T11:33:47;33.85;;;15.30;;
17844;SDS011;9047;53.486;10.218;2022-12-18T11:36:28;32.80;;;14.70;;
17844;SDS011;9047;53.486;10.218;2022-12-18T11:39:00;33.90;;;15.57;;
17844;SDS011;9047;53.486;10.218;2022-12-18T11:41:36;29.92;;;14.52;;
17844;SDS011;9047;53.486;10.218;2022-12-18T11:44:26;36.28;;;15.52;;
17844;SDS011;9047;53.486;10.218;2022-12-18T11:47:00;31.23;;;14.50;;
17844;SDS011;9047;53.486;10.218;2022-12-18T11:49:33;29.40;;;14.48;;
17844;SDS011;9047;53.486;10.218;2022-12-18T11:52:01;33.28;;;14.35;;
17844;SDS011;9047;53.486;10.218;2022-12-18T11:54:36;32.28;;;13.57;;
17844;SDS011;9047;53.486;10.218;2022-12-18T11:57:06;33.03;;;14.65;;
17844;SDS011;9047;53.486;10.218;2022-12-18T11:59:40;30.08;;;13.55;;
17844;SDS011;9047;53.486;10.218;2022-12-18T12:02:17;28.92;;;13.90;;
17844;SDS011;9047;53.486;10.218;2022-12-18T12:05:02;32.80;;;14.07;;
17844;SDS011;9047;53.486;10.218;2022-12-18T12:07:42;28.90;;;13.30;;
17844;SDS011;9047;53.486;10.218;2022-12-18T12:10:24;27.05;;;13.50;;
17844;SDS011;9047;53.486;10.218;2022-12-18T12:13:08;29.30;;;13.25;;
17844;SDS011;9047;53.486;10.218;2022-12-18T12:15:51;30.67;;;13.65;;
17844;SDS011;9047;53.486;10.218;2022-12-18T12:18:31;29.35;;;14.02;;
17844;SDS011;9047;53.486;10.218;2022-12-18T12:21:09;29.05;;;13.05;;
17844;SDS011;9047;53.486;10.218;2022-12-18T12:23:43;29.08;;;13.60;;
17844;SDS011;9047;53.486;10.218;2022-12-18T12:26:23;32.38;;;13.30;;
17844;SDS011;9047;53.486;10.218;2022-12-18T12:29:04;25.88;;;12.73;;
17844;SDS011;9047;53.486;10.218;2022-12-18T12:31:46;25.27;;;11.98;;
17844;SDS011;9047;53.486;10.218;2022-12-18T12:34:21;29.13;;;13.20;;
17844;SDS011;9047;53.486;10.218;2022-12-18T12:36:59;29.33;;;13.57;;
17844;SDS011;9047;53.486;10.218;2022-12-18T12:39:35;31.08;;;13.02;;
17844;SDS011;9047;53.486;10.218;2022-12-18T12:42:04;29.05;;;12.80;;
17844;SDS011;9047;53.486;10.218;2022-12-18T12:44:58;30.45;;;13.25;;
17844;SDS011;9047;53.486;10.218;2022-12-18T12:47:33;29.73;;;13.43;;
17844;SDS011;9047;53.486;10.218;2022-12-18T12:50:05;28.80;;;12.68;;
17844;SDS011;9047;53.486;10.218;2022-12-18T12:52:39;30.00;;;13.77;;
17844;SDS011;9047;53.486;10.218;2022-12-18T12:55:13;29.65;;;13.00;;
17844;SDS011;9047;53.486;10.218;2022-12-18T12:57:43;28.42;;;12.85;;
17844;SDS011;9047;53.486;10.218;2022-12-18T13:00:18;31.23;;;14.15;;
17844;SDS011;9047;53.486;10.218;2022-12-18T13:02:47;31.95;;;15.52;;
17844;SDS011;9047;53.486;10.218;2022-12-18T13:05:21;32.20;;;14.80;;
17844;SDS011;9047;53.486;10.218;2022-12-18T13:07:54;29.10;;;12.55;;
17844;SDS011;9047;53.486;10.218;2022-12-18T13:10:32;26.88;;;12.35;;
17844;SDS011;9047;53.486;10.218;2022-12-18T13:13:01;29.52;;;12.60;;
17844;SDS011;9047;53.486;10.218;2022-12-18T13:15:47;28.48;;;12.57;;
17844;SDS011;9047;53.486;10.218;2022-12-18T13:18:29;27.90;;;12.68;;
17844;SDS011;9047;53.486;10.218;2022-12-18T13:21:02;26.70;;;11.88;;
17844;SDS011;9047;53.486;10.218;2022-12-18T13:23:39;32.60;;;12.85;;
17844;SDS011;9047;53.486;10.218;2022-12-18T13:26:29;30.42;;;12.10;;
17844;SDS011;9047;53.486;10.218;2022-12-18T13:29:05;28.40;;;13.20;;
17844;SDS011;9047;53.486;10.218;2022-12-18T13:34:37;28.27;;;12.55;;
17844;SDS011;9047;53.486;10.218;2022-12-18T13:46:23;31.70;;;12.38;;
17844;SDS011;9047;53.486;10.218;2022-12-18T13:48:55;31.17;;;12.35;;
17844;SDS011;9047;53.486;10.218;2022-12-18T13:51:34;30.63;;;12.48;;
17844;SDS011;9047;53.486;10.218;2022-12-18T13:54:06;33.72;;;12.38;;
17844;SDS011;9047;53.486;10.218;2022-12-18T13:56:58;29.52;;;12.95;;
17844;SDS011;9047;53.486;10.218;2022-12-18T13:59:32;31.98;;;13.65;;
17844;SDS011;9047;53.486;10.218;2022-12-18T14:02:19;35.92;;;14.63;;
17844;SDS011;9047;53.486;10.218;2022-12-18T14:07:36;33.08;;;13.73;;
17844;SDS011;9047;53.486;10.218;2022-12-18T14:10:11;34.90;;;14.25;;
17844;SDS011;9047;53.486;10.218;2022-12-18T14:12:44;37.47;;;14.43;;
17844;SDS011;9047;53.486;10.218;2022-12-18T14:15:27;37.30;;;14.23;;
17844;SDS011;9047;53.486;10.218;2022-12-18T14:17:59;38.10;;;14.60;;
17844;SDS011;9047;53.486;10.218;2022-12-18T14:26:21;35.55;;;14.43;;
17844;SDS011;9047;53.486;10.218;2022-12-18T14:28:54;38.60;;;14.57;;
17844;SDS011;9047;53.486;10.218;2022-12-18T14:31:36;40.90;;;14.95;;
17844;SDS011;9047;53.486;10.218;2022-12-18T14:34:17;36.53;;;14.27;;
17844;SDS011;9047;53.486;10.218;2022-12-18T14:36:51;36.42;;;14.27;;
17844;SDS011;9047;53.486;10.218;2022-12-18T14:39:20;42.33;;;16.05;;
17844;SDS011;9047;53.486;10.218;2022-12-18T14:44:37;38.20;;;14.57;;
17844;SDS011;9047;53.486;10.218;2022-12-18T14:47:15;40.95;;;15.50;;
17844;SDS011;9047;53.486;10.218;2022-12-18T14:52:28;41.17;;;15.27;;
17844;SDS011;9047;53.486;10.218;2022-12-18T14:55:13;43.28;;;17.60;;
17844;SDS011;9047;53.486;10.218;2022-12-18T14:57:41;42.33;;;18.10;;
17844;SDS011;9047;53.486;10.218;2022-12-18T15:00:14;46.35;;;19.35;;
17844;SDS011;9047;53.486;10.218;2022-12-18T15:02:49;43.17;;;18.30;;
17844;SDS011;9047;53.486;10.218;2022-12-18T15:05:31;40.65;;;16.30;;
17844;SDS011;9047;53.486;10.218;2022-12-18T15:07:58;41.53;;;16.08;;
17844;SDS011;9047;53.486;10.218;2022-12-18T15:10:47;46.67;;;20.45;;
17844;SDS011;9047;53.486;10.218;2022-12-18T15:13:19;40.95;;;16.08;;
17844;SDS011;9047;53.486;10.218;2022-12-18T15:15:51;38.78;;;15.45;;
17844;SDS011;9047;53.486;10.218;2022-12-18T15:18:20;41.63;;;15.43;;
17844;SDS011;9047;53.486;10.218;2022-12-18T15:20:52;41.10;;;16.02;;
17844;SDS011;9047;53.486;10.218;2022-12-18T15:23:20;45.92;;;19.80;;
17844;SDS011;9047;53.486;10.218;2022-12-18T15:25:59;43.50;;;18.77;;